sensor_id;sensor_type;location;lat;lon;timestamp;P1;durP1;ratioP1;P2;durP2;ratioP2
78871;SDS011;68247;43.514;1.502;2023-05-14T00:02:13;9.23;;;3.70;;
78871;SDS011;68247;43.514;1.502;2023-05-14T00:04:38;5.97;;;3.60;;
78871;SDS011;68247;43.514;1.502;2023-05-14T00:07:05;6.15;;;3.53;;
78871;SDS011;68247;43.514;1.502;2023-05-14T00:09:30;7.50;;;3.87;;
78871;SDS011;68247;43.514;1.502;2023-05-14T00:11:56;8.48;;;4.18;;
78871;SDS011;68247;43.514;1.502;2023-05-14T00:14:22;6.38;;;3.53;;
78871;SDS011;68247;43.514;1.502;2023-05-14T00:16:47;7.03;;;4.07;;
78871;SDS011;68247;43.514;1.502;2023-05-14T00:19:14;8.05;;;4.60;;
78871;SDS011;68247;43.514;1.502;2023-05-14T00:21:39;7.40;;;3.83;;
78871;SDS011;68247;43.514;1.502;2023-05-14T00:24:05;7.90;;;4.30;;
78871;SDS011;68247;43.514;1.502;2023-05-14T00:26:30;8.03;;;4.00;;
78871;SDS011;68247;43.514;1.502;2023-05-14T00:28:56;9.15;;;5.00;;
78871;SDS011;68247;43.514;1.502;2023-05-14T00:31:21;9.87;;;5.00;;
78871;SDS011;68247;43.514;1.502;2023-05-14T00:33:46;13.00;;;4.90;;
78871;SDS011;68247;43.514;1.502;2023-05-14T00:36:12;7.23;;;4.47;;
78871;SDS011;68247;43.514;1.502;2023-05-14T00:38:38;12.18;;;5.28;;
78871;SDS011;68247;43.514;1.502;2023-05-14T00:41:05;8.48;;;4.93;;
78871;SDS011;68247;43.514;1.502;2023-05-14T00:43:31;12.03;;;4.73;;
78871;SDS011;68247;43.514;1.502;2023-05-14T00:45:57;11.95;;;5.70;;
78871;SDS011;68247;43.514;1.502;2023-05-14T00:48:22;11.03;;;5.70;;
78871;SDS011;68247;43.514;1.502;2023-05-14T00:50:48;8.65;;;5.22;;
78871;SDS011;68247;43.514;1.502;2023-05-14T00:53:15;9.80;;;4.68;;
78871;SDS011;68247;43.514;1.502;2023-05-14T00:55:42;9.07;;;4.68;;
78871;SDS011;68247;43.514;1.502;2023-05-14T00:58:11;11.43;;;5.77;;
78871;SDS011;68247;43.514;1.502;2023-05-14T01:00:38;10.68;;;5.03;;
78871;SDS011;68247;43.514;1.502;2023-05-14T01:03:04;12.07;;;5.10;;
78871;SDS011;68247;43.514;1.502;2023-05-14T01:05:36;10.18;;;5.57;;
78871;SDS011;68247;43.514;1.502;2023-05-14T01:15:39;13.87;;;6.23;;
78871;SDS011;68247;43.514;1.502;2023-05-14T01:18:06;12.77;;;5.93;;
78871;SDS011;68247;43.514;1.502;2023-05-14T01:20:33;13.13;;;7.30;;
78871;SDS011;68247;43.514;1.502;2023-05-14T01:22:58;15.77;;;7.50;;
78871;SDS011;68247;43.514;1.502;2023-05-14T01:25:24;16.58;;;6.72;;
78871;SDS011;68247;43.514;1.502;2023-05-14T01:30:53;16.88;;;7.50;;
78871;SDS011;68247;43.514;1.502;2023-05-14T01:33:23;13.52;;;7.28;;
78871;SDS011;68247;43.514;1.502;2023-05-14T01:35:49;15.45;;;7.75;;
78871;SDS011;68247;43.514;1.502;2023-05-14T01:38:17;15.65;;;7.63;;
78871;SDS011;68247;43.514;1.502;2023-05-14T01:40:44;17.80;;;7.57;;
78871;SDS011;68247;43.514;1.502;2023-05-14T01:43:10;12.55;;;7.07;;
78871;SDS011;68247;43.514;1.502;2023-05-14T01:45:36;15.48;;;7.68;;
78871;SDS011;68247;43.514;1.502;2023-05-14T01:48:02;16.70;;;7.17;;
78871;SDS011;68247;43.514;1.502;2023-05-14T01:50:28;14.50;;;7.63;;
78871;SDS011;68247;43.514;1.502;2023-05-14T01:52:53;14.33;;;7.37;;
78871;SDS011;68247;43.514;1.502;2023-05-14T01:55:20;13.30;;;6.68;;
78871;SDS011;68247;43.514;1.502;2023-05-14T01:57:48;14.30;;;6.53;;
78871;SDS011;68247;43.514;1.502;2023-05-14T02:00:14;13.40;;;7.57;;
78871;SDS011;68247;43.514;1.502;2023-05-14T02:02:39;14.43;;;6.80;;
78871;SDS011;68247;43.514;1.502;2023-05-14T02:05:05;11.20;;;6.53;;
78871;SDS011;68247;43.514;1.502;2023-05-14T02:07:31;13.50;;;7.03;;
78871;SDS011;68247;43.514;1.502;2023-05-14T02:09:56;17.85;;;8.57;;
78871;SDS011;68247;43.514;1.502;2023-05-14T02:12:22;11.50;;;5.90;;
78871;SDS011;68247;43.514;1.502;2023-05-14T02:14:47;14.87;;;7.10;;
78871;SDS011;68247;43.514;1.502;2023-05-14T02:17:13;15.77;;;7.90;;
78871;SDS011;68247;43.514;1.502;2023-05-14T02:19:41;13.03;;;5.97;;
78871;SDS011;68247;43.514;1.502;2023-05-14T02:22:07;16.20;;;7.68;;
78871;SDS011;68247;43.514;1.502;2023-05-14T02:24:32;16.00;;;7.53;;
78871;SDS011;68247;43.514;1.502;2023-05-14T02:26:58;14.87;;;7.33;;
78871;SDS011;68247;43.514;1.502;2023-05-14T02:29:25;13.77;;;8.27;;
78871;SDS011;68247;43.514;1.502;2023-05-14T02:31:50;15.77;;;8.05;;
78871;SDS011;68247;43.514;1.502;2023-05-14T02:34:16;12.63;;;7.00;;
78871;SDS011;68247;43.514;1.502;2023-05-14T02:36:41;16.40;;;6.90;;
78871;SDS011;68247;43.514;1.502;2023-05-14T02:39:07;13.97;;;7.10;;
78871;SDS011;68247;43.514;1.502;2023-05-14T02:41:32;15.45;;;7.75;;
78871;SDS011;68247;43.514;1.502;2023-05-14T02:43:57;18.23;;;7.80;;
78871;SDS011;68247;43.514;1.502;2023-05-14T02:46:23;13.50;;;6.87;;
78871;SDS011;68247;43.514;1.502;2023-05-14T02:48:48;18.43;;;8.33;;
78871;SDS011;68247;43.514;1.502;2023-05-14T02:51:14;17.07;;;8.93;;
78871;SDS011;68247;43.514;1.502;2023-05-14T02:53:40;17.65;;;8.52;;
78871;SDS011;68247;43.514;1.502;2023-05-14T02:56:05;15.77;;;8.60;;
78871;SDS011;68247;43.514;1.502;2023-05-14T02:58:32;13.57;;;7.55;;
78871;SDS011;68247;43.514;1.502;2023-05-14T03:00:57;17.08;;;8.02;;
78871;SDS011;68247;43.514;1.502;2023-05-14T03:03:23;16.03;;;8.30;;
78871;SDS011;68247;43.514;1.502;2023-05-14T03:05:48;17.43;;;8.57;;
78871;SDS011;68247;43.514;1.502;2023-05-14T03:08:14;17.00;;;8.93;;
78871;SDS011;68247;43.514;1.502;2023-05-14T03:10:40;19.20;;;9.33;;
78871;SDS011;68247;43.514;1.502;2023-05-14T03:13:05;18.92;;;8.75;;
78871;SDS011;68247;43.514;1.502;2023-05-14T03:15:31;14.63;;;7.40;;
78871;SDS011;68247;43.514;1.502;2023-05-14T03:17:56;17.50;;;8.30;;
78871;SDS011;68247;43.514;1.502;2023-05-14T03:20:23;16.38;;;8.27;;
78871;SDS011;68247;43.514;1.502;2023-05-14T03:22:48;19.80;;;8.60;;
78871;SDS011;68247;43.514;1.502;2023-05-14T03:25:14;16.20;;;7.85;;
78871;SDS011;68247;43.514;1.502;2023-05-14T03:27:39;15.53;;;7.70;;
78871;SDS011;68247;43.514;1.502;2023-05-14T03:30:05;12.37;;;6.43;;
78871;SDS011;68247;43.514;1.502;2023-05-14T03:32:31;16.15;;;7.07;;
78871;SDS011;68247;43.514;1.502;2023-05-14T03:34:56;17.77;;;8.43;;
78871;SDS011;68247;43.514;1.502;2023-05-14T03:37:22;15.93;;;7.77;;
78871;SDS011;68247;43.514;1.502;2023-05-14T03:39:48;13.03;;;6.23;;
78871;SDS011;68247;43.514;1.502;2023-05-14T03:42:14;16.13;;;7.68;;
78871;SDS011;68247;43.514;1.502;2023-05-14T03:44:39;10.73;;;6.33;;
78871;SDS011;68247;43.514;1.502;2023-05-14T03:47:05;10.20;;;5.83;;
78871;SDS011;68247;43.514;1.502;2023-05-14T03:49:30;14.20;;;7.17;;
78871;SDS011;68247;43.514;1.502;2023-05-14T03:51:56;11.90;;;6.72;;
78871;SDS011;68247;43.514;1.502;2023-05-14T03:54:23;11.37;;;5.63;;
78871;SDS011;68247;43.514;1.502;2023-05-14T03:56:49;12.38;;;6.05;;
78871;SDS011;68247;43.514;1.502;2023-05-14T03:59:14;9.63;;;5.13;;
78871;SDS011;68247;43.514;1.502;2023-05-14T04:01:39;12.27;;;6.30;;
78871;SDS011;68247;43.514;1.502;2023-05-14T04:04:05;10.63;;;5.85;;
78871;SDS011;68247;43.514;1.502;2023-05-14T04:06:31;13.63;;;6.47;;
78871;SDS011;68247;43.514;1.502;2023-05-14T04:08:57;11.82;;;6.10;;
78871;SDS011;68247;43.514;1.502;2023-05-14T04:11:22;9.53;;;5.63;;
78871;SDS011;68247;43.514;1.502;2023-05-14T04:13:48;12.27;;;6.47;;
78871;SDS011;68247;43.514;1.502;2023-05-14T04:16:13;10.23;;;5.95;;
78871;SDS011;68247;43.514;1.502;2023-05-14T04:18:39;11.13;;;5.93;;
78871;SDS011;68247;43.514;1.502;2023-05-14T04:21:04;10.10;;;5.77;;
78871;SDS011;68247;43.514;1.502;2023-05-14T04:23:29;10.97;;;6.37;;
78871;SDS011;68247;43.514;1.502;2023-05-14T04:25:56;12.55;;;5.97;;
78871;SDS011;68247;43.514;1.502;2023-05-14T04:28:21;12.82;;;6.07;;
78871;SDS011;68247;43.514;1.502;2023-05-14T04:30:47;11.00;;;5.60;;
78871;SDS011;68247;43.514;1.502;2023-05-14T04:33:13;13.50;;;6.10;;
78871;SDS011;68247;43.514;1.502;2023-05-14T04:35:38;12.80;;;6.43;;
78871;SDS011;68247;43.514;1.502;2023-05-14T04:38:03;11.93;;;6.27;;
78871;SDS011;68247;43.514;1.502;2023-05-14T04:40:30;14.32;;;6.68;;
78871;SDS011;68247;43.514;1.502;2023-05-14T04:42:56;13.10;;;6.10;;
78871;SDS011;68247;43.514;1.502;2023-05-14T04:45:21;11.50;;;6.20;;
78871;SDS011;68247;43.514;1.502;2023-05-14T04:47:47;11.23;;;5.87;;
78871;SDS011;68247;43.514;1.502;2023-05-14T04:50:12;11.60;;;5.97;;
78871;SDS011;68247;43.514;1.502;2023-05-14T04:52:38;10.07;;;5.20;;
78871;SDS011;68247;43.514;1.502;2023-05-14T04:55:03;11.43;;;5.30;;
78871;SDS011;68247;43.514;1.502;2023-05-14T04:57:29;10.52;;;6.63;;
78871;SDS011;68247;43.514;1.502;2023-05-14T04:59:55;10.70;;;6.00;;
78871;SDS011;68247;43.514;1.502;2023-05-14T05:02:20;13.00;;;6.30;;
78871;SDS011;68247;43.514;1.502;2023-05-14T05:04:46;14.65;;;6.28;;
78871;SDS011;68247;43.514;1.502;2023-05-14T05:07:11;12.20;;;6.33;;
78871;SDS011;68247;43.514;1.502;2023-05-14T05:09:37;9.30;;;5.10;;
78871;SDS011;68247;43.514;1.502;2023-05-14T05:12:03;9.90;;;5.60;;
78871;SDS011;68247;43.514;1.502;2023-05-14T05:14:29;10.52;;;6.15;;
78871;SDS011;68247;43.514;1.502;2023-05-14T05:16:54;12.30;;;5.70;;
78871;SDS011;68247;43.514;1.502;2023-05-14T05:19:20;10.35;;;6.00;;
78871;SDS011;68247;43.514;1.502;2023-05-14T05:21:45;8.47;;;5.13;;
78871;SDS011;68247;43.514;1.502;2023-05-14T05:24:11;9.93;;;5.67;;
78871;SDS011;68247;43.514;1.502;2023-05-14T05:26:37;7.53;;;4.22;;
78871;SDS011;68247;43.514;1.502;2023-05-14T05:29:03;10.30;;;5.38;;
78871;SDS011;68247;43.514;1.502;2023-05-14T05:31:29;10.67;;;5.50;;
78871;SDS011;68247;43.514;1.502;2023-05-14T05:33:55;10.38;;;4.78;;
78871;SDS011;68247;43.514;1.502;2023-05-14T05:36:21;8.35;;;4.40;;
78871;SDS011;68247;43.514;1.502;2023-05-14T05:38:46;10.50;;;5.17;;
78871;SDS011;68247;43.514;1.502;2023-05-14T05:41:12;9.60;;;5.67;;
78871;SDS011;68247;43.514;1.502;2023-05-14T05:43:37;11.55;;;6.10;;
78871;SDS011;68247;43.514;1.502;2023-05-14T05:46:03;9.33;;;5.43;;
78871;SDS011;68247;43.514;1.502;2023-05-14T05:48:28;10.43;;;5.53;;
78871;SDS011;68247;43.514;1.502;2023-05-14T05:50:53;11.77;;;5.60;;
78871;SDS011;68247;43.514;1.502;2023-05-14T05:53:19;9.93;;;6.17;;
78871;SDS011;68247;43.514;1.502;2023-05-14T05:55:44;9.38;;;5.60;;
78871;SDS011;68247;43.514;1.502;2023-05-14T05:58:10;11.37;;;5.93;;
78871;SDS011;68247;43.514;1.502;2023-05-14T06:00:36;9.43;;;5.72;;
78871;SDS011;68247;43.514;1.502;2023-05-14T06:03:01;11.67;;;6.43;;
78871;SDS011;68247;43.514;1.502;2023-05-14T06:05:27;9.67;;;5.93;;
78871;SDS011;68247;43.514;1.502;2023-05-14T06:07:52;11.07;;;6.27;;
78871;SDS011;68247;43.514;1.502;2023-05-14T06:10:18;8.85;;;4.65;;
78871;SDS011;68247;43.514;1.502;2023-05-14T06:12:44;10.17;;;5.87;;
78871;SDS011;68247;43.514;1.502;2023-05-14T06:15:09;9.70;;;5.53;;
78871;SDS011;68247;43.514;1.502;2023-05-14T06:17:36;11.67;;;5.63;;
78871;SDS011;68247;43.514;1.502;2023-05-14T06:20:01;10.95;;;5.63;;
78871;SDS011;68247;43.514;1.502;2023-05-14T06:22:29;9.82;;;5.53;;
78871;SDS011;68247;43.514;1.502;2023-05-14T06:24:55;10.53;;;5.50;;
78871;SDS011;68247;43.514;1.502;2023-05-14T06:27:20;8.73;;;5.60;;
78871;SDS011;68247;43.514;1.502;2023-05-14T06:29:46;9.27;;;5.40;;
78871;SDS011;68247;43.514;1.502;2023-05-14T06:32:11;10.43;;;6.00;;
78871;SDS011;68247;43.514;1.502;2023-05-14T06:34:39;8.77;;;5.07;;
78871;SDS011;68247;43.514;1.502;2023-05-14T06:37:05;10.13;;;5.05;;
78871;SDS011;68247;43.514;1.502;2023-05-14T06:39:31;8.90;;;5.20;;
78871;SDS011;68247;43.514;1.502;2023-05-14T06:41:56;9.43;;;5.37;;
78871;SDS011;68247;43.514;1.502;2023-05-14T06:44:22;10.05;;;5.03;;
78871;SDS011;68247;43.514;1.502;2023-05-14T06:46:47;7.57;;;4.27;;
78871;SDS011;68247;43.514;1.502;2023-05-14T06:49:12;8.10;;;4.90;;
78871;SDS011;68247;43.514;1.502;2023-05-14T06:51:38;7.23;;;4.40;;
78871;SDS011;68247;43.514;1.502;2023-05-14T06:54:04;8.80;;;5.30;;
78871;SDS011;68247;43.514;1.502;2023-05-14T06:56:30;9.70;;;4.87;;
78871;SDS011;68247;43.514;1.502;2023-05-14T06:58:55;9.05;;;5.45;;
78871;SDS011;68247;43.514;1.502;2023-05-14T07:01:21;8.77;;;5.57;;
78871;SDS011;68247;43.514;1.502;2023-05-14T07:03:46;11.20;;;6.53;;
78871;SDS011;68247;43.514;1.502;2023-05-14T07:06:11;10.60;;;5.90;;
78871;SDS011;68247;43.514;1.502;2023-05-14T07:08:38;12.43;;;5.57;;
78871;SDS011;68247;43.514;1.502;2023-05-14T07:11:03;12.60;;;6.00;;
78871;SDS011;68247;43.514;1.502;2023-05-14T07:13:29;10.50;;;5.77;;
78871;SDS011;68247;43.514;1.502;2023-05-14T07:15:54;9.60;;;5.90;;
78871;SDS011;68247;43.514;1.502;2023-05-14T07:18:20;9.65;;;5.47;;
78871;SDS011;68247;43.514;1.502;2023-05-14T07:20:47;11.93;;;6.23;;
78871;SDS011;68247;43.514;1.502;2023-05-14T07:23:12;10.02;;;5.72;;
78871;SDS011;68247;43.514;1.502;2023-05-14T07:25:38;9.83;;;5.60;;
78871;SDS011;68247;43.514;1.502;2023-05-14T07:28:03;11.43;;;6.20;;
78871;SDS011;68247;43.514;1.502;2023-05-14T07:30:29;8.77;;;5.97;;
78871;SDS011;68247;43.514;1.502;2023-05-14T07:32:54;10.37;;;5.80;;
78871;SDS011;68247;43.514;1.502;2023-05-14T07:35:19;10.03;;;6.00;;
78871;SDS011;68247;43.514;1.502;2023-05-14T07:37:45;8.70;;;4.67;;
78871;SDS011;68247;43.514;1.502;2023-05-14T07:40:10;10.63;;;5.50;;
78871;SDS011;68247;43.514;1.502;2023-05-14T07:42:36;10.32;;;6.57;;
78871;SDS011;68247;43.514;1.502;2023-05-14T07:45:02;9.13;;;5.80;;
78871;SDS011;68247;43.514;1.502;2023-05-14T07:47:28;9.98;;;6.13;;
78871;SDS011;68247;43.514;1.502;2023-05-14T07:49:54;9.20;;;5.67;;
78871;SDS011;68247;43.514;1.502;2023-05-14T07:52:20;9.00;;;5.38;;
78871;SDS011;68247;43.514;1.502;2023-05-14T07:54:46;8.43;;;5.43;;
78871;SDS011;68247;43.514;1.502;2023-05-14T07:57:11;9.33;;;6.00;;
78871;SDS011;68247;43.514;1.502;2023-05-14T07:59:36;8.63;;;6.07;;
78871;SDS011;68247;43.514;1.502;2023-05-14T08:02:02;11.17;;;6.00;;
78871;SDS011;68247;43.514;1.502;2023-05-14T08:04:27;9.23;;;5.53;;
78871;SDS011;68247;43.514;1.502;2023-05-14T08:06:53;8.27;;;5.10;;
78871;SDS011;68247;43.514;1.502;2023-05-14T08:09:20;7.60;;;4.88;;
78871;SDS011;68247;43.514;1.502;2023-05-14T08:11:45;9.33;;;5.63;;
78871;SDS011;68247;43.514;1.502;2023-05-14T08:14:11;9.97;;;5.53;;
78871;SDS011;68247;43.514;1.502;2023-05-14T08:16:36;12.13;;;4.88;;
78871;SDS011;68247;43.514;1.502;2023-05-14T08:19:02;8.10;;;5.22;;
78871;SDS011;68247;43.514;1.502;2023-05-14T08:21:28;8.20;;;5.00;;
78871;SDS011;68247;43.514;1.502;2023-05-14T08:23:53;8.70;;;5.60;;
78871;SDS011;68247;43.514;1.502;2023-05-14T08:26:19;8.23;;;4.88;;
78871;SDS011;68247;43.514;1.502;2023-05-14T08:28:45;9.73;;;5.38;;
78871;SDS011;68247;43.514;1.502;2023-05-14T08:31:11;8.73;;;5.03;;
78871;SDS011;68247;43.514;1.502;2023-05-14T08:33:38;8.02;;;4.95;;
78871;SDS011;68247;43.514;1.502;2023-05-14T08:36:04;9.30;;;5.50;;
78871;SDS011;68247;43.514;1.502;2023-05-14T08:38:31;8.15;;;5.38;;
78871;SDS011;68247;43.514;1.502;2023-05-14T08:40:57;10.27;;;5.18;;
78871;SDS011;68247;43.514;1.502;2023-05-14T08:43:26;7.93;;;5.25;;
78871;SDS011;68247;43.514;1.502;2023-05-14T08:45:59;9.80;;;5.10;;
78871;SDS011;68247;43.514;1.502;2023-05-14T08:48:28;6.55;;;4.65;;
78871;SDS011;68247;43.514;1.502;2023-05-14T08:50:56;8.60;;;5.28;;
78871;SDS011;68247;43.514;1.502;2023-05-14T08:53:22;8.13;;;5.23;;
78871;SDS011;68247;43.514;1.502;2023-05-14T08:55:48;10.80;;;5.13;;
78871;SDS011;68247;43.514;1.502;2023-05-14T08:58:15;9.27;;;5.72;;
78871;SDS011;68247;43.514;1.502;2023-05-14T09:00:41;8.80;;;5.27;;
78871;SDS011;68247;43.514;1.502;2023-05-14T09:03:06;7.93;;;5.30;;
78871;SDS011;68247;43.514;1.502;2023-05-14T09:05:32;8.00;;;5.50;;
78871;SDS011;68247;43.514;1.502;2023-05-14T09:07:58;8.30;;;5.15;;
78871;SDS011;68247;43.514;1.502;2023-05-14T09:10:23;8.37;;;5.07;;
78871;SDS011;68247;43.514;1.502;2023-05-14T09:12:49;8.63;;;5.35;;
78871;SDS011;68247;43.514;1.502;2023-05-14T09:15:15;8.43;;;5.57;;
78871;SDS011;68247;43.514;1.502;2023-05-14T09:17:41;8.33;;;5.07;;
78871;SDS011;68247;43.514;1.502;2023-05-14T09:20:07;8.02;;;5.10;;
78871;SDS011;68247;43.514;1.502;2023-05-14T09:22:33;7.95;;;5.28;;
78871;SDS011;68247;43.514;1.502;2023-05-14T09:27:33;9.97;;;5.77;;
78871;SDS011;68247;43.514;1.502;2023-05-14T09:30:05;8.95;;;5.93;;
78871;SDS011;68247;43.514;1.502;2023-05-14T09:32:35;10.13;;;5.70;;
78871;SDS011;68247;43.514;1.502;2023-05-14T09:35:08;10.45;;;5.80;;
78871;SDS011;68247;43.514;1.502;2023-05-14T09:37:52;10.00;;;6.55;;
78871;SDS011;68247;43.514;1.502;2023-05-14T09:40:22;9.13;;;6.00;;
78871;SDS011;68247;43.514;1.502;2023-05-14T09:42:48;10.63;;;6.60;;
78871;SDS011;68247;43.514;1.502;2023-05-14T09:45:14;9.68;;;5.60;;
78871;SDS011;68247;43.514;1.502;2023-05-14T09:47:40;8.50;;;5.68;;
78871;SDS011;68247;43.514;1.502;2023-05-14T09:50:06;8.87;;;5.43;;
78871;SDS011;68247;43.514;1.502;2023-05-14T09:52:32;12.18;;;6.13;;
78871;SDS011;68247;43.514;1.502;2023-05-14T09:54:58;8.77;;;5.57;;
78871;SDS011;68247;43.514;1.502;2023-05-14T09:57:24;8.48;;;5.63;;
78871;SDS011;68247;43.514;1.502;2023-05-14T09:59:51;9.98;;;6.15;;
78871;SDS011;68247;43.514;1.502;2023-05-14T10:02:23;9.33;;;5.60;;
78871;SDS011;68247;43.514;1.502;2023-05-14T10:05:01;8.70;;;5.60;;
78871;SDS011;68247;43.514;1.502;2023-05-14T10:07:30;7.38;;;5.13;;
78871;SDS011;68247;43.514;1.502;2023-05-14T10:10:18;7.35;;;5.30;;
78871;SDS011;68247;43.514;1.502;2023-05-14T10:13:06;9.10;;;5.88;;
78871;SDS011;68247;43.514;1.502;2023-05-14T10:15:48;9.00;;;5.50;;
78871;SDS011;68247;43.514;1.502;2023-05-14T10:18:22;10.03;;;5.17;;
78871;SDS011;68247;43.514;1.502;2023-05-14T10:20:51;8.25;;;5.18;;
78871;SDS011;68247;43.514;1.502;2023-05-14T10:23:25;6.90;;;5.15;;
78871;SDS011;68247;43.514;1.502;2023-05-14T10:25:50;9.30;;;5.57;;
78871;SDS011;68247;43.514;1.502;2023-05-14T10:28:16;6.97;;;5.13;;
78871;SDS011;68247;43.514;1.502;2023-05-14T10:30:45;7.43;;;5.47;;
78871;SDS011;68247;43.514;1.502;2023-05-14T10:33:11;7.93;;;5.22;;
78871;SDS011;68247;43.514;1.502;2023-05-14T10:38:36;7.25;;;5.53;;
78871;SDS011;68247;43.514;1.502;2023-05-14T10:41:05;7.60;;;4.85;;
78871;SDS011;68247;43.514;1.502;2023-05-14T10:43:38;7.57;;;4.60;;
78871;SDS011;68247;43.514;1.502;2023-05-14T10:46:05;6.88;;;4.63;;
78871;SDS011;68247;43.514;1.502;2023-05-14T10:48:31;7.00;;;4.30;;
78871;SDS011;68247;43.514;1.502;2023-05-14T10:50:57;5.30;;;4.03;;
78871;SDS011;68247;43.514;1.502;2023-05-14T10:53:33;4.93;;;3.72;;
78871;SDS011;68247;43.514;1.502;2023-05-14T10:56:01;7.23;;;4.60;;
78871;SDS011;68247;43.514;1.502;2023-05-14T10:58:29;5.32;;;4.20;;
78871;SDS011;68247;43.514;1.502;2023-05-14T11:00:56;6.53;;;4.10;;
78871;SDS011;68247;43.514;1.502;2023-05-14T11:03:21;7.67;;;4.53;;
78871;SDS011;68247;43.514;1.502;2023-05-14T11:05:47;6.10;;;4.27;;
78871;SDS011;68247;43.514;1.502;2023-05-14T11:08:13;5.77;;;4.00;;
78871;SDS011;68247;43.514;1.502;2023-05-14T11:10:38;5.78;;;4.35;;
78871;SDS011;68247;43.514;1.502;2023-05-14T11:13:03;7.33;;;4.20;;
78871;SDS011;68247;43.514;1.502;2023-05-14T11:15:30;5.97;;;3.67;;
78871;SDS011;68247;43.514;1.502;2023-05-14T11:17:55;5.50;;;3.67;;
78871;SDS011;68247;43.514;1.502;2023-05-14T11:20:21;5.83;;;4.20;;
78871;SDS011;68247;43.514;1.502;2023-05-14T11:22:47;6.53;;;3.60;;
78871;SDS011;68247;43.514;1.502;2023-05-14T11:25:14;5.38;;;3.63;;
78871;SDS011;68247;43.514;1.502;2023-05-14T11:27:42;5.38;;;3.78;;
78871;SDS011;68247;43.514;1.502;2023-05-14T11:30:13;5.28;;;4.20;;
78871;SDS011;68247;43.514;1.502;2023-05-14T11:32:45;4.60;;;3.60;;
78871;SDS011;68247;43.514;1.502;2023-05-14T11:35:11;5.07;;;3.50;;
78871;SDS011;68247;43.514;1.502;2023-05-14T11:37:37;4.57;;;3.35;;
78871;SDS011;68247;43.514;1.502;2023-05-14T11:40:05;4.68;;;3.70;;
78871;SDS011;68247;43.514;1.502;2023-05-14T11:42:33;5.65;;;4.05;;
78871;SDS011;68247;43.514;1.502;2023-05-14T11:45:00;4.90;;;4.17;;
78871;SDS011;68247;43.514;1.502;2023-05-14T11:47:26;4.75;;;3.58;;
78871;SDS011;68247;43.514;1.502;2023-05-14T11:49:53;5.53;;;3.53;;
78871;SDS011;68247;43.514;1.502;2023-05-14T11:52:19;5.75;;;3.50;;
78871;SDS011;68247;43.514;1.502;2023-05-14T11:54:46;5.95;;;4.10;;
78871;SDS011;68247;43.514;1.502;2023-05-14T11:57:14;4.72;;;3.70;;
78871;SDS011;68247;43.514;1.502;2023-05-14T11:59:41;6.47;;;3.30;;
78871;SDS011;68247;43.514;1.502;2023-05-14T12:02:08;6.32;;;3.90;;
78871;SDS011;68247;43.514;1.502;2023-05-14T12:04:35;5.68;;;3.47;;
78871;SDS011;68247;43.514;1.502;2023-05-14T12:07:06;4.67;;;3.33;;
78871;SDS011;68247;43.514;1.502;2023-05-14T12:09:35;4.05;;;3.15;;
78871;SDS011;68247;43.514;1.502;2023-05-14T12:12:09;4.40;;;3.08;;
78871;SDS011;68247;43.514;1.502;2023-05-14T12:14:39;5.30;;;3.33;;
78871;SDS011;68247;43.514;1.502;2023-05-14T12:17:13;4.57;;;3.20;;
78871;SDS011;68247;43.514;1.502;2023-05-14T12:19:47;4.35;;;3.30;;
78871;SDS011;68247;43.514;1.502;2023-05-14T12:22:16;4.88;;;3.30;;
78871;SDS011;68247;43.514;1.502;2023-05-14T12:24:43;4.28;;;3.00;;
78871;SDS011;68247;43.514;1.502;2023-05-14T12:27:20;4.03;;;3.00;;
78871;SDS011;68247;43.514;1.502;2023-05-14T12:29:46;4.90;;;3.30;;
78871;SDS011;68247;43.514;1.502;2023-05-14T12:32:11;5.30;;;3.07;;
78871;SDS011;68247;43.514;1.502;2023-05-14T12:34:37;4.18;;;2.92;;
78871;SDS011;68247;43.514;1.502;2023-05-14T12:37:03;4.60;;;2.67;;
78871;SDS011;68247;43.514;1.502;2023-05-14T12:39:31;4.22;;;3.08;;
78871;SDS011;68247;43.514;1.502;2023-05-14T12:41:57;5.43;;;3.53;;
78871;SDS011;68247;43.514;1.502;2023-05-14T12:44:22;6.13;;;4.30;;
78871;SDS011;68247;43.514;1.502;2023-05-14T12:46:48;6.67;;;4.43;;
78871;SDS011;68247;43.514;1.502;2023-05-14T12:49:13;6.63;;;4.60;;
78871;SDS011;68247;43.514;1.502;2023-05-14T12:51:38;6.43;;;4.13;;
78871;SDS011;68247;43.514;1.502;2023-05-14T12:54:05;5.93;;;4.60;;
78871;SDS011;68247;43.514;1.502;2023-05-14T12:56:30;5.30;;;4.43;;
78871;SDS011;68247;43.514;1.502;2023-05-14T12:58:56;6.47;;;4.57;;
78871;SDS011;68247;43.514;1.502;2023-05-14T13:01:21;5.47;;;4.10;;
78871;SDS011;68247;43.514;1.502;2023-05-14T13:03:47;4.60;;;3.80;;
78871;SDS011;68247;43.514;1.502;2023-05-14T13:06:13;5.07;;;3.35;;
78871;SDS011;68247;43.514;1.502;2023-05-14T13:08:38;4.73;;;3.20;;
78871;SDS011;68247;43.514;1.502;2023-05-14T13:11:04;3.90;;;3.47;;
78871;SDS011;68247;43.514;1.502;2023-05-14T13:13:29;4.32;;;2.72;;
78871;SDS011;68247;43.514;1.502;2023-05-14T13:15:55;4.53;;;3.57;;
78871;SDS011;68247;43.514;1.502;2023-05-14T13:18:20;4.20;;;3.10;;
78871;SDS011;68247;43.514;1.502;2023-05-14T13:20:45;4.27;;;2.97;;
78871;SDS011;68247;43.514;1.502;2023-05-14T13:23:11;4.00;;;2.63;;
78871;SDS011;68247;43.514;1.502;2023-05-14T13:25:37;5.15;;;3.00;;
78871;SDS011;68247;43.514;1.502;2023-05-14T13:28:03;4.03;;;3.17;;
78871;SDS011;68247;43.514;1.502;2023-05-14T13:30:28;5.40;;;3.10;;
78871;SDS011;68247;43.514;1.502;2023-05-14T13:32:54;4.65;;;3.13;;
78871;SDS011;68247;43.514;1.502;2023-05-14T13:35:19;5.13;;;3.33;;
78871;SDS011;68247;43.514;1.502;2023-05-14T13:37:45;5.70;;;3.40;;
78871;SDS011;68247;43.514;1.502;2023-05-14T13:40:11;4.60;;;3.30;;
78871;SDS011;68247;43.514;1.502;2023-05-14T13:42:36;5.30;;;3.30;;
78871;SDS011;68247;43.514;1.502;2023-05-14T13:45:04;4.20;;;2.92;;
78871;SDS011;68247;43.514;1.502;2023-05-14T13:47:30;5.82;;;3.30;;
78871;SDS011;68247;43.514;1.502;2023-05-14T13:49:55;5.03;;;3.00;;
78871;SDS011;68247;43.514;1.502;2023-05-14T13:52:21;4.87;;;3.20;;
78871;SDS011;68247;43.514;1.502;2023-05-14T13:54:47;4.67;;;3.03;;
78871;SDS011;68247;43.514;1.502;2023-05-14T13:57:12;5.28;;;3.10;;
78871;SDS011;68247;43.514;1.502;2023-05-14T13:59:38;6.00;;;3.47;;
78871;SDS011;68247;43.514;1.502;2023-05-14T14:02:04;4.30;;;2.97;;
78871;SDS011;68247;43.514;1.502;2023-05-14T14:04:29;4.43;;;2.90;;
78871;SDS011;68247;43.514;1.502;2023-05-14T14:06:55;4.37;;;3.17;;
78871;SDS011;68247;43.514;1.502;2023-05-14T14:09:20;5.22;;;3.30;;
78871;SDS011;68247;43.514;1.502;2023-05-14T14:11:46;4.73;;;3.63;;
78871;SDS011;68247;43.514;1.502;2023-05-14T14:14:12;4.85;;;2.97;;
78871;SDS011;68247;43.514;1.502;2023-05-14T14:16:37;4.70;;;3.70;;
78871;SDS011;68247;43.514;1.502;2023-05-14T14:19:03;5.37;;;3.63;;
78871;SDS011;68247;43.514;1.502;2023-05-14T14:21:28;5.75;;;3.70;;
78871;SDS011;68247;43.514;1.502;2023-05-14T14:23:55;5.17;;;2.77;;
78871;SDS011;68247;43.514;1.502;2023-05-14T14:26:20;5.50;;;3.40;;
78871;SDS011;68247;43.514;1.502;2023-05-14T14:28:45;5.17;;;3.50;;
78871;SDS011;68247;43.514;1.502;2023-05-14T14:31:11;5.43;;;3.97;;
78871;SDS011;68247;43.514;1.502;2023-05-14T14:33:37;5.43;;;3.53;;
78871;SDS011;68247;43.514;1.502;2023-05-14T14:36:02;4.70;;;3.23;;
78871;SDS011;68247;43.514;1.502;2023-05-14T14:38:28;5.72;;;3.35;;
78871;SDS011;68247;43.514;1.502;2023-05-14T14:40:53;6.60;;;3.00;;
78871;SDS011;68247;43.514;1.502;2023-05-14T14:43:19;8.30;;;4.27;;
78871;SDS011;68247;43.514;1.502;2023-05-14T14:45:45;6.57;;;5.00;;
78871;SDS011;68247;43.514;1.502;2023-05-14T14:51:01;8.63;;;4.82;;
78871;SDS011;68247;43.514;1.502;2023-05-14T14:53:27;9.93;;;6.70;;
78871;SDS011;68247;43.514;1.502;2023-05-14T14:55:53;7.55;;;6.07;;
78871;SDS011;68247;43.514;1.502;2023-05-14T14:58:19;9.57;;;6.33;;